"WATCHING THE WEATHER TO PROTECT LIFE AND PROPERTY"



Aviation
Satellite (InfraRed)


TNCA 300000Z 08023KT 9999 FEW019 28/24 Q1010 NOSIG
TNCB 292355Z AUTO 10012KT 070V140 9999 NSC 27/24 Q1012
TNCC 300000Z 11015KT 9999 FEW018 28/24 Q1011 NOSIG
TNCM 300000Z 07008KT 9999 FEW018 28/25 Q1019 NOSIG